createdAt,value
2019-03-22T00:02:18.181Z,6.03
2019-03-22T00:05:05.204Z,5.98
2019-03-22T00:07:52.684Z,5.95
2019-03-22T00:13:45.557Z,5.97
2019-03-22T00:19:39.758Z,6.71
2019-03-22T00:22:26.972Z,6.18
2019-03-22T00:25:14.119Z,6.88
2019-03-22T00:28:00.939Z,6.34
2019-03-22T00:30:48.038Z,6.19
2019-03-22T00:43:01.909Z,5.73
2019-03-22T00:45:49.329Z,5.70
2019-03-22T00:51:42.383Z,5.61
2019-03-22T00:54:32.156Z,5.58
2019-03-22T01:00:26.534Z,5.57
2019-03-22T01:03:14.264Z,5.59
2019-03-22T01:06:02.130Z,5.62
2019-03-22T01:08:49.358Z,5.62
2019-03-22T01:11:36.675Z,5.60
2019-03-22T01:14:24.500Z,5.59
2019-03-22T01:17:12.331Z,5.58
2019-03-22T01:20:13.603Z,5.58
2019-03-22T01:23:02.001Z,5.57
2019-03-22T01:28:57.210Z,5.53
2019-03-22T01:31:44.275Z,5.52
2019-03-22T01:34:31.470Z,5.47
2019-03-22T01:37:18.438Z,6.12
2019-03-22T01:40:08.803Z,6.32
2019-03-22T01:42:55.609Z,6.46
2019-03-22T01:45:42.369Z,5.87
2019-03-22T01:48:29.916Z,5.73
2019-03-22T01:51:17.333Z,6.42
2019-03-22T01:54:04.051Z,5.88
2019-03-22T01:56:51.600Z,5.74
2019-03-22T01:59:38.384Z,5.66
2019-03-22T02:02:25.993Z,5.61
2019-03-22T02:05:13.930Z,5.55
2019-03-22T02:08:00.751Z,5.53
2019-03-22T02:13:54.858Z,5.45
2019-03-22T02:16:41.683Z,6.16
2019-03-22T02:19:29.388Z,5.68
2019-03-22T02:22:16.401Z,5.55
2019-03-22T02:28:09.260Z,5.37
2019-03-22T02:30:56.750Z,5.32
2019-03-22T02:33:43.926Z,5.27
2019-03-22T02:36:31.928Z,5.22
2019-03-22T02:39:19.963Z,5.16
2019-03-22T02:42:07.390Z,5.13
2019-03-22T02:44:55.024Z,5.11
2019-03-22T02:47:42.691Z,5.08
2019-03-22T02:50:29.360Z,5.07
2019-03-22T02:53:17.372Z,5.05
2019-03-22T02:56:04.411Z,5.03
2019-03-22T02:59:05.221Z,5.03
2019-03-22T03:01:52.584Z,5.02
2019-03-22T03:04:40.396Z,4.97
2019-03-22T03:07:27.386Z,4.95
2019-03-22T03:10:14.451Z,4.93
2019-03-22T03:13:01.767Z,4.92
2019-03-22T03:15:49.991Z,4.94
2019-03-22T03:18:37.135Z,4.91
2019-03-22T03:21:24.554Z,4.87
2019-03-22T03:24:11.668Z,4.86
2019-03-22T03:26:58.784Z,5.53
2019-03-22T03:29:45.757Z,4.96
2019-03-22T03:32:33.557Z,4.85
2019-03-22T03:35:21.247Z,4.82
2019-03-22T03:44:21.750Z,4.67
2019-03-22T03:47:10.684Z,4.60
2019-03-22T03:53:06.968Z,4.30
2019-03-22T03:55:54.091Z,4.21
2019-03-22T04:04:55.285Z,4.11
2019-03-22T04:07:42.412Z,4.85
2019-03-22T04:10:30.349Z,5.05
2019-03-22T04:13:17.275Z,4.43
2019-03-22T04:16:04.063Z,4.31
2019-03-22T04:18:51.411Z,4.26
2019-03-22T04:21:38.595Z,4.23
2019-03-22T04:24:25.931Z,4.21
2019-03-22T04:27:16.761Z,4.19
2019-03-22T04:30:03.866Z,4.15
2019-03-22T04:32:51.176Z,4.13
2019-03-22T04:35:38.881Z,4.11
2019-03-22T04:41:32.888Z,4.31
2019-03-22T04:44:20.911Z,4.23
2019-03-22T04:50:13.843Z,4.12
2019-03-22T04:53:00.596Z,4.04
2019-03-22T04:55:47.388Z,3.98
2019-03-22T04:58:34.635Z,3.92
2019-03-22T05:01:22.446Z,3.85
2019-03-22T05:04:23.808Z,3.77
2019-03-22T05:07:10.742Z,3.69
2019-03-22T05:09:57.732Z,3.65
2019-03-22T05:12:45.867Z,3.62
2019-03-22T05:15:33.356Z,3.61
2019-03-22T05:18:27.285Z,3.60
2019-03-22T05:21:14.383Z,4.39
2019-03-22T05:24:01.204Z,3.87
2019-03-22T05:26:48.109Z,3.78
2019-03-22T05:29:35.046Z,3.76
2019-03-22T05:32:24.898Z,3.78
2019-03-22T05:35:12.411Z,3.81
2019-03-22T05:37:59.318Z,3.84
2019-03-22T05:40:46.661Z,3.89
2019-03-22T05:43:33.992Z,3.95
2019-03-22T05:46:21.690Z,4.01
2019-03-22T05:49:09.339Z,4.04
2019-03-22T05:51:56.688Z,4.09
2019-03-22T05:54:43.986Z,4.15
2019-03-22T05:57:30.687Z,4.19
2019-03-22T06:00:17.923Z,4.28
2019-03-22T06:03:05.927Z,4.37
2019-03-22T06:05:54.286Z,4.45
2019-03-22T06:08:48.729Z,4.50
2019-03-22T06:17:52.182Z,4.76
2019-03-22T06:20:45.119Z,4.82
2019-03-22T06:23:32.412Z,4.89
2019-03-22T06:26:19.692Z,5.02
2019-03-22T06:29:06.985Z,5.17
2019-03-22T06:31:54.322Z,6.13
2019-03-22T07:02:43.673Z,6.63
2019-03-22T07:30:34.142Z,8.23
2019-03-22T07:36:28.714Z,8.66
2019-03-22T08:04:10.278Z,9.90
2019-03-22T08:10:18.119Z,10.25
2019-03-22T08:13:12.270Z,11.44
2019-03-22T08:15:58.975Z,10.86
2019-03-22T08:18:45.862Z,10.89
2019-03-22T08:21:33.288Z,11.94
2019-03-22T08:24:27.707Z,11.29
2019-03-22T08:27:14.482Z,11.32
2019-03-22T08:30:01.332Z,11.38
2019-03-22T08:32:50.427Z,11.45
2019-03-22T08:35:35.406Z,11.67
2019-03-22T08:38:23.341Z,11.79
2019-03-22T08:41:10.458Z,12.07
2019-03-22T08:43:58.450Z,13.47
2019-03-22T08:46:45.755Z,12.97
2019-03-22T08:49:32.747Z,13.02
2019-03-22T08:58:31.940Z,13.47
2019-03-22T09:01:18.913Z,13.62
2019-03-22T09:04:05.847Z,13.70
2019-03-22T09:10:13.336Z,14.05
2019-03-22T09:13:00.443Z,14.34
2019-03-22T09:15:47.930Z,14.63
2019-03-22T09:24:46.813Z,16.21
2019-03-22T09:27:36.461Z,15.33
2019-03-22T09:30:20.780Z,15.48
2019-03-22T09:33:07.916Z,15.70
2019-03-22T09:36:09.080Z,15.92
2019-03-22T09:42:03.394Z,16.72
2019-03-22T09:44:50.466Z,16.79
2019-03-22T09:47:38.563Z,16.85
2019-03-22T09:50:26.705Z,18.17
2019-03-22T09:53:13.927Z,17.57
2019-03-22T09:56:01.482Z,17.62
2019-03-22T09:58:48.859Z,17.75
2019-03-22T10:01:36.097Z,17.83
2019-03-22T10:04:23.730Z,17.87
2019-03-22T10:07:11.583Z,18.04
2019-03-22T10:09:58.890Z,17.85
2019-03-22T10:12:48.576Z,17.98
2019-03-22T10:15:34.884Z,17.92
2019-03-22T10:21:31.730Z,17.80
2019-03-22T10:24:19.540Z,18.05
2019-03-22T10:27:07.603Z,18.28
2019-03-22T10:29:54.790Z,18.39
2019-03-22T10:32:49.288Z,19.84
2019-03-22T10:35:36.333Z,18.92
2019-03-22T10:38:30.884Z,18.82
2019-03-22T10:41:11.681Z,18.77
2019-03-22T10:43:58.847Z,18.78
2019-03-22T10:46:46.538Z,18.82
2019-03-22T10:49:33.606Z,18.73
2019-03-22T10:52:21.137Z,18.99
2019-03-22T10:55:28.556Z,20.48
2019-03-22T10:58:02.968Z,19.77
2019-03-22T11:00:57.278Z,19.71
2019-03-22T11:03:45.214Z,19.83
2019-03-22T11:06:32.195Z,19.84
2019-03-22T11:12:25.469Z,19.66
2019-03-22T11:15:12.607Z,19.66
2019-03-22T11:18:01.030Z,19.65
2019-03-22T11:20:48.452Z,19.78
2019-03-22T11:23:36.390Z,19.84
2019-03-22T11:26:23.611Z,19.97
2019-03-22T11:29:10.513Z,20.12
2019-03-22T11:31:58.263Z,21.52
2019-03-22T11:34:44.995Z,20.84
2019-03-22T11:40:38.070Z,20.80
2019-03-22T11:43:25.675Z,20.78
2019-03-22T11:46:11.648Z,20.84
2019-03-22T11:49:01.645Z,20.87
2019-03-22T11:51:49.344Z,20.82
2019-03-22T11:54:37.692Z,22.17
2019-03-22T11:57:25.727Z,21.28
2019-03-22T12:00:15.617Z,21.16
2019-03-22T12:03:03.258Z,21.21
2019-03-22T12:05:51.273Z,21.30
2019-03-22T12:08:38.320Z,21.34
2019-03-22T12:11:25.916Z,21.42
2019-03-22T12:14:13.366Z,21.37
2019-03-22T12:17:07.598Z,21.43
2019-03-22T12:19:54.740Z,21.51
2019-03-22T12:22:48.843Z,21.53
2019-03-22T12:25:36.034Z,22.85
2019-03-22T12:28:23.761Z,21.94
2019-03-22T12:31:11.629Z,21.87
2019-03-22T12:33:58.493Z,21.79
2019-03-22T12:39:52.820Z,21.56
2019-03-22T12:42:39.954Z,21.70
2019-03-22T12:45:27.269Z,21.69
2019-03-22T12:48:14.287Z,21.68
2019-03-22T12:51:05.938Z,21.78
2019-03-22T12:53:52.818Z,21.77
2019-03-22T12:56:39.637Z,21.78
2019-03-22T12:59:26.958Z,21.84
2019-03-22T13:05:20.920Z,22.03
2019-03-22T13:08:07.646Z,22.15
2019-03-22T13:10:54.780Z,22.26
2019-03-22T13:13:41.877Z,22.32
2019-03-22T13:16:28.823Z,22.17
2019-03-22T13:19:15.495Z,22.09
2019-03-22T13:22:03.531Z,23.44
2019-03-22T13:24:50.554Z,22.53
2019-03-22T13:30:43.467Z,22.51
2019-03-22T13:33:31.077Z,22.45
2019-03-22T13:42:30.389Z,22.98
2019-03-22T13:45:17.592Z,22.76
2019-03-22T13:48:04.578Z,22.73
2019-03-22T13:50:51.639Z,22.66
2019-03-22T13:56:45.731Z,22.82
2019-03-22T13:59:32.999Z,22.66
2019-03-22T14:11:38.700Z,22.72
2019-03-22T14:14:27.680Z,22.66
2019-03-22T14:17:13.131Z,22.74
2019-03-22T14:20:10.458Z,22.66
2019-03-22T14:22:47.583Z,22.69
2019-03-22T14:25:42.412Z,22.69
2019-03-22T14:28:36.282Z,22.62
2019-03-22T14:31:23.267Z,22.34
2019-03-22T14:34:10.549Z,22.36
2019-03-22T14:36:57.664Z,22.45
2019-03-22T14:39:44.783Z,22.37
2019-03-22T14:45:51.718Z,22.12
2019-03-22T14:48:38.907Z,21.86
2019-03-22T14:51:26.836Z,21.92
2019-03-22T14:54:14.076Z,21.93
2019-03-22T14:57:02.404Z,21.72
2019-03-22T15:00:00.285Z,21.51
2019-03-22T15:02:47.696Z,21.30
2019-03-22T15:05:34.501Z,22.42
2019-03-22T15:08:22.723Z,21.62
2019-03-22T15:11:09.578Z,21.36
2019-03-22T15:13:59.558Z,21.28
2019-03-22T15:23:39.464Z,21.03
2019-03-22T15:26:26.731Z,21.01
2019-03-22T15:29:17.201Z,21.06
2019-03-22T15:32:22.936Z,21.00
2019-03-22T15:35:13.772Z,20.97
2019-03-22T15:57:19.109Z,20.48
2019-03-22T16:31:28.319Z,20.81
2019-03-22T16:34:15.524Z,19.78
2019-03-22T16:37:02.331Z,19.34
2019-03-22T16:39:54.769Z,19.00
2019-03-22T16:42:41.588Z,18.69
2019-03-22T16:45:38.834Z,18.41
2019-03-22T16:48:25.427Z,18.16
2019-03-22T16:51:12.115Z,17.98
2019-03-22T16:53:58.925Z,17.80
2019-03-22T16:56:46.062Z,17.65
2019-03-22T16:59:32.894Z,17.49
2019-03-22T17:02:20.194Z,17.33
2019-03-22T17:05:07.831Z,17.18
2019-03-22T17:07:54.854Z,17.06
2019-03-22T17:10:41.682Z,16.90
2019-03-22T17:13:28.769Z,16.75
2019-03-22T17:16:16.110Z,16.59
2019-03-22T17:25:17.759Z,16.10
2019-03-22T17:28:04.688Z,15.95
2019-03-22T17:30:51.789Z,15.80
2019-03-22T17:33:39.035Z,15.66
2019-03-22T17:36:26.225Z,15.44
2019-03-22T17:39:13.177Z,15.23
2019-03-22T17:41:59.913Z,15.09
2019-03-22T17:44:47.672Z,15.77
2019-03-22T17:53:47.803Z,14.75
2019-03-22T17:56:34.897Z,14.65
2019-03-22T17:59:22.680Z,14.55
2019-03-22T18:02:09.593Z,14.46
2019-03-22T18:04:56.331Z,14.34
2019-03-22T18:10:49.291Z,14.08
2019-03-22T18:13:36.745Z,13.96
2019-03-22T18:22:36.575Z,14.46
2019-03-22T18:25:23.439Z,13.88
2019-03-22T18:28:10.366Z,13.72
2019-03-22T18:30:57.570Z,13.63
2019-03-22T18:33:52.233Z,13.55
2019-03-22T18:36:40.169Z,13.45
2019-03-22T18:39:27.101Z,14.10
2019-03-22T18:45:21.597Z,13.31
2019-03-22T18:48:08.589Z,13.22
2019-03-22T18:50:56.944Z,13.85
2019-03-22T18:53:43.055Z,13.21
2019-03-22T18:56:30.049Z,13.06
2019-03-22T18:59:18.391Z,12.97
2019-03-22T19:02:05.144Z,12.89
2019-03-22T19:04:52.537Z,12.77
2019-03-22T19:07:40.667Z,12.62
2019-03-22T19:13:34.039Z,12.47
2019-03-22T19:16:21.585Z,12.41
2019-03-22T19:19:08.348Z,12.33
2019-03-22T19:21:55.734Z,13.02
2019-03-22T19:24:42.726Z,12.47
2019-03-22T19:27:29.730Z,13.04
2019-03-22T19:30:16.944Z,13.15
2019-03-22T19:33:03.811Z,12.53
2019-03-22T19:35:51.384Z,12.35
2019-03-22T19:38:38.718Z,12.23
2019-03-22T19:41:33.328Z,12.12
2019-03-22T19:44:20.637Z,12.01
2019-03-22T19:47:07.673Z,11.90
2019-03-22T19:49:55.486Z,11.81
2019-03-22T19:52:43.609Z,11.74
2019-03-22T19:55:30.743Z,11.67
2019-03-22T19:58:18.270Z,11.61
2019-03-22T20:01:05.385Z,11.54
2019-03-22T20:03:53.530Z,11.50
2019-03-22T20:06:41.239Z,11.46
2019-03-22T20:09:28.250Z,11.42
2019-03-22T20:12:15.502Z,11.39
2019-03-22T20:15:03.715Z,11.34
2019-03-22T20:17:50.544Z,11.99
2019-03-22T20:20:38.569Z,11.48
2019-03-22T20:23:27.134Z,11.37
2019-03-22T20:26:14.485Z,11.29
2019-03-22T20:29:01.905Z,11.21
2019-03-22T20:31:49.816Z,11.12
2019-03-22T20:34:39.446Z,11.03
2019-03-22T20:37:24.441Z,10.95
2019-03-22T20:40:14.463Z,10.89
2019-03-22T20:43:01.657Z,10.82
2019-03-22T20:45:49.783Z,10.76
2019-03-22T20:51:44.091Z,10.66
2019-03-22T20:54:31.242Z,10.62
2019-03-22T21:00:39.353Z,10.52
2019-03-22T21:03:26.473Z,10.47
2019-03-22T21:06:13.366Z,10.44
2019-03-22T21:09:01.705Z,11.12
2019-03-22T21:11:49.035Z,10.63
2019-03-22T21:14:37.038Z,10.54
2019-03-22T21:17:38.822Z,11.20
2019-03-22T21:23:36.672Z,11.24
2019-03-22T21:32:32.405Z,10.35
2019-03-22T21:35:37.539Z,10.30
2019-03-22T21:38:21.910Z,10.23
2019-03-22T21:41:08.929Z,10.16
2019-03-22T21:43:55.844Z,10.07
2019-03-22T21:46:42.760Z,9.99
2019-03-22T21:49:44.321Z,9.89
2019-03-22T21:55:37.594Z,9.73
2019-03-22T21:58:25.389Z,9.68
2019-03-22T22:01:12.414Z,9.63
2019-03-22T22:04:00.763Z,9.58
2019-03-22T22:06:55.023Z,9.53
2019-03-22T22:09:42.854Z,9.49
2019-03-22T22:12:30.315Z,9.45
2019-03-22T22:15:17.068Z,9.41
2019-03-22T22:18:04.409Z,9.36
2019-03-22T22:20:51.529Z,9.30
2019-03-22T22:26:51.483Z,9.16
2019-03-22T22:29:38.156Z,9.09
2019-03-22T22:32:25.374Z,9.04
2019-03-22T22:35:12.219Z,9.00
2019-03-22T22:38:00.228Z,8.95
2019-03-22T22:40:47.136Z,8.89
2019-03-22T22:43:34.289Z,8.83
2019-03-22T22:46:35.616Z,8.78
2019-03-22T22:49:22.842Z,8.72
2019-03-22T22:52:17.047Z,8.68
2019-03-22T22:55:04.545Z,8.64
2019-03-22T22:57:58.615Z,8.61
2019-03-22T23:00:46.043Z,8.59
2019-03-22T23:03:33.875Z,8.57
2019-03-22T23:06:22.123Z,8.58
2019-03-22T23:09:09.454Z,8.56
2019-03-22T23:11:58.078Z,8.54
2019-03-22T23:14:45.393Z,8.50
2019-03-22T23:17:32.589Z,8.48
2019-03-22T23:20:21.750Z,9.15
2019-03-22T23:23:08.995Z,8.65
2019-03-22T23:29:01.559Z,8.40
2019-03-22T23:31:49.328Z,8.33
2019-03-22T23:34:58.696Z,8.28
2019-03-22T23:37:37.728Z,8.21
2019-03-22T23:40:25.274Z,8.15
2019-03-22T23:43:12.389Z,8.10
2019-03-22T23:45:59.818Z,8.03
2019-03-22T23:48:46.729Z,7.97
2019-03-22T23:51:33.620Z,7.91
2019-03-22T23:54:21.192Z,7.86
2019-03-22T23:57:08.085Z,7.80
2019-03-22T23:59:56.202Z,7.74
